sensor_id;sensor_type;location;lat;lon;timestamp;pressure;altitude;pressure_sealevel;temperature;humidity
7333;BME280;3707;43.618;25.342;2022-08-21T00:01:40;99554.56;;;26.12;100.00
7333;BME280;3707;43.618;25.342;2022-08-21T00:04:07;99574.81;;;26.14;100.00
7333;BME280;3707;43.618;25.342;2022-08-21T00:06:36;99570.84;;;26.37;100.00
7333;BME280;3707;43.618;25.342;2022-08-21T00:09:05;99566.50;;;26.66;100.00
7333;BME280;3707;43.618;25.342;2022-08-21T00:11:35;99566.50;;;26.66;100.00
7333;BME280;3707;43.618;25.342;2022-08-21T00:14:03;99540.53;;;26.55;100.00
7333;BME280;3707;43.618;25.342;2022-08-21T00:16:31;99534.31;;;26.41;100.00
7333;BME280;3707;43.618;25.342;2022-08-21T00:18:58;99562.16;;;26.49;100.00
7333;BME280;3707;43.618;25.342;2022-08-21T00:21:25;99561.16;;;26.66;100.00
7333;BME280;3707;43.618;25.342;2022-08-21T00:23:52;99556.53;;;26.70;100.00
7333;BME280;3707;43.618;25.342;2022-08-21T00:26:19;99548.53;;;26.40;100.00
7333;BME280;3707;43.618;25.342;2022-08-21T00:28:47;99520.44;;;26.36;100.00
7333;BME280;3707;43.618;25.342;2022-08-21T00:31:14;99539.13;;;26.19;100.00
7333;BME280;3707;43.618;25.342;2022-08-21T00:33:42;99537.59;;;26.14;100.00
7333;BME280;3707;43.618;25.342;2022-08-21T00:36:09;99533.63;;;26.37;100.00
7333;BME280;3707;43.618;25.342;2022-08-21T00:38:36;99528.34;;;26.06;100.00
7333;BME280;3707;43.618;25.342;2022-08-21T00:41:06;99474.13;;;25.63;100.00
7333;BME280;3707;43.618;25.342;2022-08-21T00:43:35;99510.34;;;25.95;100.00
7333;BME280;3707;43.618;25.342;2022-08-21T00:46:05;99509.38;;;26.12;100.00
7333;BME280;3707;43.618;25.342;2022-08-21T00:48:33;99493.19;;;26.17;100.00
7333;BME280;3707;43.618;25.342;2022-08-21T00:51:03;99483.97;;;25.92;100.00
7333;BME280;3707;43.618;25.342;2022-08-21T00:53:31;99480.81;;;26.15;100.00
7333;BME280;3707;43.618;25.342;2022-08-21T00:55:59;99443.63;;;26.15;100.00
7333;BME280;3707;43.618;25.342;2022-08-21T00:58:28;99442.34;;;26.23;100.00
7333;BME280;3707;43.618;25.342;2022-08-21T01:00:57;99443.91;;;26.41;100.00
7333;BME280;3707;43.618;25.342;2022-08-21T01:03:25;99453.63;;;26.56;100.00
7333;BME280;3707;43.618;25.342;2022-08-21T01:05:52;99439.25;;;26.44;100.00
7333;BME280;3707;43.618;25.342;2022-08-21T01:08:20;99437.84;;;26.53;100.00
7333;BME280;3707;43.618;25.342;2022-08-21T01:10:49;99431.78;;;26.65;100.00
7333;BME280;3707;43.618;25.342;2022-08-21T01:13:17;99432.72;;;26.50;100.00
7333;BME280;3707;43.618;25.342;2022-08-21T01:15:46;99442.31;;;26.52;100.00
7333;BME280;3707;43.618;25.342;2022-08-21T01:18:15;99428.94;;;26.54;100.00
7333;BME280;3707;43.618;25.342;2022-08-21T01:20:52;99430.19;;;26.77;100.00
7333;BME280;3707;43.618;25.342;2022-08-21T01:23:22;99364.59;;;26.19;100.00
7333;BME280;3707;43.618;25.342;2022-08-21T01:25:49;99421.91;;;26.53;100.00
7333;BME280;3707;43.618;25.342;2022-08-21T01:28:15;99418.00;;;26.14;100.00
7333;BME280;3707;43.618;25.342;2022-08-21T01:30:43;99411.59;;;26.03;100.00
7333;BME280;3707;43.618;25.342;2022-08-21T01:33:10;99408.69;;;25.62;100.00
7333;BME280;3707;43.618;25.342;2022-08-21T01:35:37;99407.81;;;26.07;100.00
7333;BME280;3707;43.618;25.342;2022-08-21T01:38:06;99392.97;;;25.73;100.00
7333;BME280;3707;43.618;25.342;2022-08-21T01:40:33;99392.72;;;25.78;100.00
7333;BME280;3707;43.618;25.342;2022-08-21T01:43:00;99373.00;;;25.82;100.00
7333;BME280;3707;43.618;25.342;2022-08-21T01:45:27;99355.81;;;25.73;100.00
7333;BME280;3707;43.618;25.342;2022-08-21T01:47:54;99378.28;;;25.68;100.00
7333;BME280;3707;43.618;25.342;2022-08-21T01:50:21;99357.88;;;25.37;100.00
7333;BME280;3707;43.618;25.342;2022-08-21T01:52:48;99345.75;;;25.33;100.00
7333;BME280;3707;43.618;25.342;2022-08-21T01:55:18;99334.97;;;25.36;100.00
7333;BME280;3707;43.618;25.342;2022-08-21T01:57:45;99313.38;;;25.57;100.00
7333;BME280;3707;43.618;25.342;2022-08-21T02:00:15;99315.88;;;25.75;100.00
7333;BME280;3707;43.618;25.342;2022-08-21T02:02:42;99309.16;;;25.83;100.00
7333;BME280;3707;43.618;25.342;2022-08-21T02:05:11;99311.75;;;25.85;100.00
7333;BME280;3707;43.618;25.342;2022-08-21T02:07:39;99311.16;;;25.94;100.00
7333;BME280;3707;43.618;25.342;2022-08-21T02:10:08;99274.66;;;25.53;100.00
7333;BME280;3707;43.618;25.342;2022-08-21T02:12:36;99311.59;;;25.72;100.00
7333;BME280;3707;43.618;25.342;2022-08-21T02:15:05;99306.44;;;25.85;100.00
7333;BME280;3707;43.618;25.342;2022-08-21T02:17:37;99317.00;;;26.00;100.00
7333;BME280;3707;43.618;25.342;2022-08-21T02:20:05;99315.84;;;26.04;100.00
7333;BME280;3707;43.618;25.342;2022-08-21T02:22:32;99281.91;;;25.65;100.00
7333;BME280;3707;43.618;25.342;2022-08-21T02:24:59;99308.81;;;25.59;100.00
7333;BME280;3707;43.618;25.342;2022-08-21T02:27:26;99323.94;;;25.73;100.00
7333;BME280;3707;43.618;25.342;2022-08-21T02:29:56;99315.34;;;25.98;100.00
7333;BME280;3707;43.618;25.342;2022-08-21T02:32:23;99326.19;;;26.09;100.00
7333;BME280;3707;43.618;25.342;2022-08-21T02:34:50;99341.66;;;26.02;100.00
7333;BME280;3707;43.618;25.342;2022-08-21T02:37:17;99353.63;;;26.09;100.00
7333;BME280;3707;43.618;25.342;2022-08-21T02:39:44;99369.75;;;26.06;100.00
7333;BME280;3707;43.618;25.342;2022-08-21T02:42:11;99374.75;;;25.67;100.00
7333;BME280;3707;43.618;25.342;2022-08-21T02:44:38;99367.41;;;25.56;100.00
7333;BME280;3707;43.618;25.342;2022-08-21T02:47:06;99355.22;;;25.37;100.00
7333;BME280;3707;43.618;25.342;2022-08-21T02:49:33;99342.13;;;24.71;100.00
7333;BME280;3707;43.618;25.342;2022-08-21T02:52:00;99359.38;;;24.62;100.00
7333;BME280;3707;43.618;25.342;2022-08-21T02:54:27;99368.75;;;25.01;100.00
7333;BME280;3707;43.618;25.342;2022-08-21T02:56:53;99374.66;;;24.90;100.00
7333;BME280;3707;43.618;25.342;2022-08-21T02:59:20;99352.56;;;24.74;100.00
7333;BME280;3707;43.618;25.342;2022-08-21T03:01:47;99371.72;;;24.79;100.00
7333;BME280;3707;43.618;25.342;2022-08-21T03:04:15;99362.75;;;24.82;100.00
7333;BME280;3707;43.618;25.342;2022-08-21T03:06:42;99374.06;;;25.01;100.00
7333;BME280;3707;43.618;25.342;2022-08-21T03:09:09;99374.84;;;25.18;100.00
7333;BME280;3707;43.618;25.342;2022-08-21T03:11:36;99380.78;;;24.75;100.00
7333;BME280;3707;43.618;25.342;2022-08-21T03:14:03;99359.09;;;24.84;100.00
7333;BME280;3707;43.618;25.342;2022-08-21T03:16:30;99368.69;;;25.02;100.00
7333;BME280;3707;43.618;25.342;2022-08-21T03:18:57;99383.44;;;24.75;100.00
7333;BME280;3707;43.618;25.342;2022-08-21T03:21:26;99386.53;;;24.83;100.00
7333;BME280;3707;43.618;25.342;2022-08-21T03:23:54;99385.84;;;24.47;100.00
7333;BME280;3707;43.618;25.342;2022-08-21T03:26:20;99375.66;;;24.39;100.00
7333;BME280;3707;43.618;25.342;2022-08-21T03:28:47;99395.16;;;24.71;100.00
7333;BME280;3707;43.618;25.342;2022-08-21T03:31:16;99366.66;;;25.07;100.00
7333;BME280;3707;43.618;25.342;2022-08-21T03:33:43;99417.50;;;25.47;100.00
7333;BME280;3707;43.618;25.342;2022-08-21T03:36:10;99421.78;;;25.49;100.00
7333;BME280;3707;43.618;25.342;2022-08-21T03:38:39;99355.59;;;24.99;100.00
7333;BME280;3707;43.618;25.342;2022-08-21T03:41:07;99426.66;;;25.41;100.00
7333;BME280;3707;43.618;25.342;2022-08-21T03:43:34;99433.25;;;25.81;100.00
7333;BME280;3707;43.618;25.342;2022-08-21T03:46:02;99429.66;;;25.82;100.00
7333;BME280;3707;43.618;25.342;2022-08-21T03:48:30;99446.88;;;25.75;100.00
7333;BME280;3707;43.618;25.342;2022-08-21T03:50:57;99452.75;;;25.96;100.00
7333;BME280;3707;43.618;25.342;2022-08-21T03:53:24;99444.38;;;25.72;100.00
7333;BME280;3707;43.618;25.342;2022-08-21T03:55:53;99448.94;;;25.86;100.00
7333;BME280;3707;43.618;25.342;2022-08-21T03:58:22;99430.06;;;24.79;100.00
7333;BME280;3707;43.618;25.342;2022-08-21T04:00:51;99458.75;;;25.21;100.00
7333;BME280;3707;43.618;25.342;2022-08-21T04:03:19;99458.75;;;25.37;100.00
7333;BME280;3707;43.618;25.342;2022-08-21T04:05:46;99377.19;;;24.76;100.00
7333;BME280;3707;43.618;25.342;2022-08-21T04:08:15;99446.97;;;25.58;100.00
7333;BME280;3707;43.618;25.342;2022-08-21T04:10:45;99453.72;;;25.79;100.00
7333;BME280;3707;43.618;25.342;2022-08-21T04:13:14;99461.84;;;26.07;100.00
7333;BME280;3707;43.618;25.342;2022-08-21T04:15:41;99459.97;;;25.47;100.00
7333;BME280;3707;43.618;25.342;2022-08-21T04:18:08;99468.88;;;25.46;100.00
7333;BME280;3707;43.618;25.342;2022-08-21T04:20:35;99466.97;;;25.48;100.00
7333;BME280;3707;43.618;25.342;2022-08-21T04:23:03;99398.16;;;25.13;100.00
7333;BME280;3707;43.618;25.342;2022-08-21T04:25:30;99480.38;;;25.62;100.00
7333;BME280;3707;43.618;25.342;2022-08-21T04:27:57;99475.72;;;25.50;100.00
7333;BME280;3707;43.618;25.342;2022-08-21T04:30:26;99477.94;;;25.42;100.00
7333;BME280;3707;43.618;25.342;2022-08-21T04:32:52;99477.19;;;25.40;100.00
7333;BME280;3707;43.618;25.342;2022-08-21T04:35:21;99463.94;;;25.71;100.00
7333;BME280;3707;43.618;25.342;2022-08-21T04:37:49;99477.09;;;25.88;100.00
7333;BME280;3707;43.618;25.342;2022-08-21T04:40:18;99468.59;;;25.97;100.00
7333;BME280;3707;43.618;25.342;2022-08-21T04:42:47;99470.94;;;26.03;100.00
7333;BME280;3707;43.618;25.342;2022-08-21T04:45:20;99469.81;;;26.07;100.00
7333;BME280;3707;43.618;25.342;2022-08-21T04:47:50;99462.88;;;26.35;100.00
7333;BME280;3707;43.618;25.342;2022-08-21T04:50:18;99472.59;;;26.36;100.00
7333;BME280;3707;43.618;25.342;2022-08-21T04:52:45;99464.56;;;26.06;100.00
7333;BME280;3707;43.618;25.342;2022-08-21T04:55:13;99476.72;;;26.10;100.00
7333;BME280;3707;43.618;25.342;2022-08-21T04:57:40;99470.50;;;26.41;100.00
7333;BME280;3707;43.618;25.342;2022-08-21T05:00:09;99477.00;;;26.65;100.00
7333;BME280;3707;43.618;25.342;2022-08-21T05:02:40;99483.81;;;26.55;100.00
7333;BME280;3707;43.618;25.342;2022-08-21T05:05:10;99473.09;;;26.27;100.00
7333;BME280;3707;43.618;25.342;2022-08-21T05:07:37;99477.75;;;26.23;100.00
7333;BME280;3707;43.618;25.342;2022-08-21T05:10:05;99461.91;;;26.06;100.00
7333;BME280;3707;43.618;25.342;2022-08-21T05:12:34;99482.25;;;25.91;100.00
7333;BME280;3707;43.618;25.342;2022-08-21T05:15:03;99446.22;;;26.01;100.00
7333;BME280;3707;43.618;25.342;2022-08-21T05:17:30;99459.34;;;26.64;100.00
7333;BME280;3707;43.618;25.342;2022-08-21T05:19:57;99484.00;;;27.24;100.00
7333;BME280;3707;43.618;25.342;2022-08-21T05:22:25;99477.69;;;27.68;100.00
7333;BME280;3707;43.618;25.342;2022-08-21T05:24:52;99488.03;;;28.65;100.00
7333;BME280;3707;43.618;25.342;2022-08-21T05:27:18;99484.28;;;28.55;100.00
7333;BME280;3707;43.618;25.342;2022-08-21T05:29:45;99490.00;;;29.14;100.00
7333;BME280;3707;43.618;25.342;2022-08-21T05:32:13;99481.53;;;29.20;100.00
7333;BME280;3707;43.618;25.342;2022-08-21T05:34:40;99487.75;;;29.69;98.17
7333;BME280;3707;43.618;25.342;2022-08-21T05:37:10;99451.88;;;30.32;91.76
7333;BME280;3707;43.618;25.342;2022-08-21T05:39:38;99482.31;;;30.77;88.10
7333;BME280;3707;43.618;25.342;2022-08-21T05:42:06;99472.69;;;30.74;85.68
7333;BME280;3707;43.618;25.342;2022-08-21T05:44:32;99490.06;;;30.34;86.07
7333;BME280;3707;43.618;25.342;2022-08-21T05:47:03;99494.41;;;29.64;92.02
7333;BME280;3707;43.618;25.342;2022-08-21T05:49:30;99486.72;;;29.59;93.88
7333;BME280;3707;43.618;25.342;2022-08-21T05:51:57;99495.94;;;29.55;93.44
7333;BME280;3707;43.618;25.342;2022-08-21T05:54:24;99488.28;;;29.38;94.43
7333;BME280;3707;43.618;25.342;2022-08-21T05:56:52;99489.41;;;29.59;91.83
7333;BME280;3707;43.618;25.342;2022-08-21T05:59:19;99488.03;;;29.53;91.90
7333;BME280;3707;43.618;25.342;2022-08-21T06:01:45;99461.88;;;29.70;91.00
7333;BME280;3707;43.618;25.342;2022-08-21T06:04:13;99489.47;;;29.70;93.37
7333;BME280;3707;43.618;25.342;2022-08-21T06:06:40;99474.69;;;29.41;93.48
7333;BME280;3707;43.618;25.342;2022-08-21T06:09:07;99490.53;;;30.28;89.55
7333;BME280;3707;43.618;25.342;2022-08-21T06:11:34;99476.97;;;29.71;91.83
7333;BME280;3707;43.618;25.342;2022-08-21T06:14:02;99477.38;;;29.65;88.92
7333;BME280;3707;43.618;25.342;2022-08-21T06:16:31;99474.69;;;29.53;89.16
7333;BME280;3707;43.618;25.342;2022-08-21T06:18:58;99482.81;;;29.88;89.27
7333;BME280;3707;43.618;25.342;2022-08-21T06:21:25;99477.53;;;29.63;89.64
7333;BME280;3707;43.618;25.342;2022-08-21T06:23:52;99482.06;;;29.37;91.56
7333;BME280;3707;43.618;25.342;2022-08-21T06:26:19;99494.81;;;29.70;90.70
7333;BME280;3707;43.618;25.342;2022-08-21T06:28:46;99492.94;;;30.55;87.44
7333;BME280;3707;43.618;25.342;2022-08-21T06:31:16;99501.84;;;31.01;84.40
7333;BME280;3707;43.618;25.342;2022-08-21T06:33:44;99495.16;;;31.29;82.36
7333;BME280;3707;43.618;25.342;2022-08-21T06:36:11;99497.09;;;31.27;80.50
7333;BME280;3707;43.618;25.342;2022-08-21T06:38:38;99478.97;;;31.08;82.49
7333;BME280;3707;43.618;25.342;2022-08-21T06:41:05;99497.72;;;31.30;81.51
7333;BME280;3707;43.618;25.342;2022-08-21T06:43:32;99483.59;;;31.17;80.12
7333;BME280;3707;43.618;25.342;2022-08-21T06:45:59;99496.63;;;31.33;79.84
7333;BME280;3707;43.618;25.342;2022-08-21T06:48:28;99493.81;;;31.12;79.10
7333;BME280;3707;43.618;25.342;2022-08-21T06:50:58;99493.44;;;31.06;80.31
7333;BME280;3707;43.618;25.342;2022-08-21T06:53:25;99494.78;;;31.22;81.97
7333;BME280;3707;43.618;25.342;2022-08-21T06:55:52;99501.00;;;31.67;82.69
7333;BME280;3707;43.618;25.342;2022-08-21T06:58:19;99503.81;;;31.21;79.86
7333;BME280;3707;43.618;25.342;2022-08-21T07:00:47;99502.69;;;31.02;82.13
7333;BME280;3707;43.618;25.342;2022-08-21T07:03:19;99500.88;;;31.13;77.61
7333;BME280;3707;43.618;25.342;2022-08-21T07:05:48;99483.66;;;30.93;76.28
7333;BME280;3707;43.618;25.342;2022-08-21T07:08:15;99499.44;;;31.31;65.93
7333;BME280;3707;43.618;25.342;2022-08-21T07:10:43;99490.75;;;31.50;68.46
7333;BME280;3707;43.618;25.342;2022-08-21T07:13:10;99477.59;;;31.47;69.59
7333;BME280;3707;43.618;25.342;2022-08-21T07:15:37;99487.06;;;32.07;63.99
7333;BME280;3707;43.618;25.342;2022-08-21T07:18:04;99484.41;;;32.27;63.13
7333;BME280;3707;43.618;25.342;2022-08-21T07:20:31;99464.38;;;32.00;64.57
7333;BME280;3707;43.618;25.342;2022-08-21T07:23:02;99483.69;;;32.46;62.18
7333;BME280;3707;43.618;25.342;2022-08-21T07:25:30;99495.34;;;31.92;64.67
7333;BME280;3707;43.618;25.342;2022-08-21T07:27:57;99496.50;;;32.11;66.07
7333;BME280;3707;43.618;25.342;2022-08-21T07:30:24;99501.28;;;32.07;58.89
7333;BME280;3707;43.618;25.342;2022-08-21T07:32:53;99491.59;;;32.48;64.67
7333;BME280;3707;43.618;25.342;2022-08-21T07:35:21;99481.34;;;32.53;59.39
7333;BME280;3707;43.618;25.342;2022-08-21T07:37:49;99488.91;;;32.27;60.96
7333;BME280;3707;43.618;25.342;2022-08-21T07:40:18;99483.06;;;32.74;59.92
7333;BME280;3707;43.618;25.342;2022-08-21T07:42:47;99489.50;;;32.62;59.73
7333;BME280;3707;43.618;25.342;2022-08-21T07:45:15;99484.84;;;32.32;58.75
7333;BME280;3707;43.618;25.342;2022-08-21T07:47:42;99492.16;;;32.10;60.23
7333;BME280;3707;43.618;25.342;2022-08-21T07:50:10;99479.13;;;31.94;57.36
7333;BME280;3707;43.618;25.342;2022-08-21T07:52:37;99488.53;;;31.88;58.80
7333;BME280;3707;43.618;25.342;2022-08-21T07:55:05;99485.78;;;32.11;56.63
7333;BME280;3707;43.618;25.342;2022-08-21T07:57:34;99484.63;;;32.56;56.82
7333;BME280;3707;43.618;25.342;2022-08-21T08:00:02;99471.78;;;31.53;61.49
7333;BME280;3707;43.618;25.342;2022-08-21T08:02:29;99481.94;;;31.92;62.81
7333;BME280;3707;43.618;25.342;2022-08-21T08:04:58;99471.84;;;32.28;56.13
7333;BME280;3707;43.618;25.342;2022-08-21T08:07:25;99476.44;;;31.94;60.32
7333;BME280;3707;43.618;25.342;2022-08-21T08:09:52;99475.88;;;31.68;58.05
7333;BME280;3707;43.618;25.342;2022-08-21T08:12:19;99475.91;;;31.24;65.22
7333;BME280;3707;43.618;25.342;2022-08-21T08:14:48;99475.19;;;31.55;68.82
7333;BME280;3707;43.618;25.342;2022-08-21T08:17:15;99472.53;;;31.98;58.80
7333;BME280;3707;43.618;25.342;2022-08-21T08:19:42;99464.41;;;31.88;64.75
7333;BME280;3707;43.618;25.342;2022-08-21T08:22:13;99481.41;;;32.41;62.50
7333;BME280;3707;43.618;25.342;2022-08-21T08:24:40;99467.38;;;31.41;64.79
7333;BME280;3707;43.618;25.342;2022-08-21T08:27:07;99466.19;;;31.56;64.89
7333;BME280;3707;43.618;25.342;2022-08-21T08:29:34;99471.91;;;31.52;67.47
7333;BME280;3707;43.618;25.342;2022-08-21T08:32:04;99465.44;;;31.32;69.11
7333;BME280;3707;43.618;25.342;2022-08-21T08:34:32;99462.53;;;31.24;75.47
7333;BME280;3707;43.618;25.342;2022-08-21T08:36:59;99465.19;;;31.46;75.49
7333;BME280;3707;43.618;25.342;2022-08-21T08:39:26;99466.03;;;31.69;73.15
7333;BME280;3707;43.618;25.342;2022-08-21T08:41:57;99445.69;;;31.33;72.18
7333;BME280;3707;43.618;25.342;2022-08-21T08:44:27;99454.50;;;31.02;77.66
7333;BME280;3707;43.618;25.342;2022-08-21T08:46:55;99454.84;;;31.53;74.98
7333;BME280;3707;43.618;25.342;2022-08-21T08:49:31;99440.06;;;31.69;76.53
7333;BME280;3707;43.618;25.342;2022-08-21T08:52:03;99438.81;;;31.84;76.08
7333;BME280;3707;43.618;25.342;2022-08-21T08:54:35;99437.69;;;31.87;76.15
7333;BME280;3707;43.618;25.342;2022-08-21T08:57:09;99442.00;;;31.78;80.72
7333;BME280;3707;43.618;25.342;2022-08-21T08:59:40;99438.94;;;31.72;78.62
7333;BME280;3707;43.618;25.342;2022-08-21T09:02:09;99404.28;;;31.37;80.81
7333;BME280;3707;43.618;25.342;2022-08-21T09:04:38;99434.25;;;31.64;75.74
7333;BME280;3707;43.618;25.342;2022-08-21T09:07:13;99431.22;;;31.24;78.37
7333;BME280;3707;43.618;25.342;2022-08-21T09:09:51;99439.03;;;31.16;83.80
7333;BME280;3707;43.618;25.342;2022-08-21T09:12:32;99436.41;;;30.70;84.79
7333;BME280;3707;43.618;25.342;2022-08-21T09:15:08;99418.25;;;30.52;80.33
7333;BME280;3707;43.618;25.342;2022-08-21T09:17:52;99412.81;;;30.53;84.99
7333;BME280;3707;43.618;25.342;2022-08-21T09:20:29;99429.75;;;31.31;82.85
7333;BME280;3707;43.618;25.342;2022-08-21T09:23:06;99419.13;;;31.41;77.22
7333;BME280;3707;43.618;25.342;2022-08-21T09:25:42;99423.56;;;31.09;78.63
7333;BME280;3707;43.618;25.342;2022-08-21T09:28:12;99406.38;;;30.67;80.42
7333;BME280;3707;43.618;25.342;2022-08-21T09:30:40;99419.28;;;30.84;81.36
7333;BME280;3707;43.618;25.342;2022-08-21T09:33:09;99421.59;;;30.77;83.01
7333;BME280;3707;43.618;25.342;2022-08-21T09:35:50;99407.25;;;31.12;81.51
7333;BME280;3707;43.618;25.342;2022-08-21T09:38:25;99413.09;;;31.06;79.73
7333;BME280;3707;43.618;25.342;2022-08-21T09:40:58;99409.38;;;31.51;81.38
7333;BME280;3707;43.618;25.342;2022-08-21T09:43:25;99412.56;;;31.34;80.59
7333;BME280;3707;43.618;25.342;2022-08-21T09:46:03;99393.09;;;31.32;77.36
7333;BME280;3707;43.618;25.342;2022-08-21T09:48:39;99371.19;;;30.49;83.37
7333;BME280;3707;43.618;25.342;2022-08-21T09:51:10;99386.56;;;31.14;79.75
7333;BME280;3707;43.618;25.342;2022-08-21T09:53:42;99392.63;;;30.60;80.50
7333;BME280;3707;43.618;25.342;2022-08-21T09:56:18;99409.91;;;30.67;80.92
7333;BME280;3707;43.618;25.342;2022-08-21T09:59:17;99383.34;;;30.75;80.23
7333;BME280;3707;43.618;25.342;2022-08-21T10:01:46;99385.72;;;31.02;78.29
7333;BME280;3707;43.618;25.342;2022-08-21T10:04:14;99394.97;;;30.98;77.61
7333;BME280;3707;43.618;25.342;2022-08-21T10:06:42;99393.38;;;31.07;75.95
7333;BME280;3707;43.618;25.342;2022-08-21T10:09:11;99396.75;;;31.31;73.38
7333;BME280;3707;43.618;25.342;2022-08-21T10:11:39;99383.06;;;31.45;72.67
7333;BME280;3707;43.618;25.342;2022-08-21T10:14:26;99386.72;;;31.55;72.65
7333;BME280;3707;43.618;25.342;2022-08-21T10:17:03;99384.69;;;31.25;75.46
7333;BME280;3707;43.618;25.342;2022-08-21T10:19:38;99387.53;;;31.13;73.76
7333;BME280;3707;43.618;25.342;2022-08-21T10:22:19;99379.72;;;31.21;74.11
7333;BME280;3707;43.618;25.342;2022-08-21T10:24:54;99350.03;;;31.02;72.60
7333;BME280;3707;43.618;25.342;2022-08-21T10:27:31;99382.88;;;31.26;72.86
7333;BME280;3707;43.618;25.342;2022-08-21T10:30:04;99362.88;;;31.30;72.27
7333;BME280;3707;43.618;25.342;2022-08-21T10:32:42;99373.00;;;31.26;72.58
7333;BME280;3707;43.618;25.342;2022-08-21T10:35:13;99364.50;;;31.21;71.60
7333;BME280;3707;43.618;25.342;2022-08-21T10:38:01;99361.44;;;31.26;70.91
7333;BME280;3707;43.618;25.342;2022-08-21T10:40:37;99372.47;;;31.55;70.37
7333;BME280;3707;43.618;25.342;2022-08-21T10:43:18;99381.38;;;32.19;68.15
7333;BME280;3707;43.618;25.342;2022-08-21T10:45:59;99372.13;;;32.12;69.35
7333;BME280;3707;43.618;25.342;2022-08-21T10:48:33;99370.69;;;32.49;68.74
7333;BME280;3707;43.618;25.342;2022-08-21T10:51:07;99350.38;;;32.56;64.73
7333;BME280;3707;43.618;25.342;2022-08-21T10:53:45;99348.94;;;32.82;62.49
7333;BME280;3707;43.618;25.342;2022-08-21T10:56:17;99364.56;;;33.38;62.96
7333;BME280;3707;43.618;25.342;2022-08-21T10:58:49;99352.50;;;32.83;62.87
7333;BME280;3707;43.618;25.342;2022-08-21T11:01:24;99362.00;;;33.36;60.96
7333;BME280;3707;43.618;25.342;2022-08-21T11:04:07;99365.25;;;33.30;61.86
7333;BME280;3707;43.618;25.342;2022-08-21T11:06:38;99339.53;;;32.98;62.12
7333;BME280;3707;43.618;25.342;2022-08-21T11:09:11;99357.59;;;33.26;60.23
7333;BME280;3707;43.618;25.342;2022-08-21T11:11:43;99341.31;;;32.57;61.05
7333;BME280;3707;43.618;25.342;2022-08-21T11:14:19;99338.53;;;32.89;62.06
7333;BME280;3707;43.618;25.342;2022-08-21T11:16:52;99319.03;;;32.36;67.06
7333;BME280;3707;43.618;25.342;2022-08-21T11:19:22;99342.97;;;33.00;65.56
7333;BME280;3707;43.618;25.342;2022-08-21T11:21:55;99323.66;;;32.55;67.63
7333;BME280;3707;43.618;25.342;2022-08-21T11:24:30;99329.59;;;32.58;67.13
7333;BME280;3707;43.618;25.342;2022-08-21T11:27:02;99319.38;;;32.42;65.62
7333;BME280;3707;43.618;25.342;2022-08-21T11:29:34;99326.69;;;32.61;65.41
7333;BME280;3707;43.618;25.342;2022-08-21T11:32:21;99320.91;;;33.06;58.43
7333;BME280;3707;43.618;25.342;2022-08-21T11:34:57;99303.63;;;32.89;57.76
7333;BME280;3707;43.618;25.342;2022-08-21T11:37:43;99305.00;;;32.53;59.89
7333;BME280;3707;43.618;25.342;2022-08-21T11:40:22;99302.56;;;32.50;61.38
7333;BME280;3707;43.618;25.342;2022-08-21T11:42:59;99295.75;;;31.95;61.94
7333;BME280;3707;43.618;25.342;2022-08-21T11:45:33;99289.53;;;31.94;63.94
7333;BME280;3707;43.618;25.342;2022-08-21T11:48:10;99286.66;;;32.28;63.16
7333;BME280;3707;43.618;25.342;2022-08-21T11:50:43;99282.25;;;32.57;59.37
7333;BME280;3707;43.618;25.342;2022-08-21T11:53:14;99294.38;;;32.42;59.88
7333;BME280;3707;43.618;25.342;2022-08-21T11:55:47;99296.25;;;32.91;59.48
7333;BME280;3707;43.618;25.342;2022-08-21T11:58:19;99282.09;;;31.98;61.27
7333;BME280;3707;43.618;25.342;2022-08-21T12:00:51;99291.97;;;32.69;58.75
7333;BME280;3707;43.618;25.342;2022-08-21T12:03:25;99291.41;;;32.75;57.71
7333;BME280;3707;43.618;25.342;2022-08-21T12:05:55;99245.06;;;32.73;55.35
7333;BME280;3707;43.618;25.342;2022-08-21T12:08:29;99257.59;;;33.13;54.42
7333;BME280;3707;43.618;25.342;2022-08-21T12:11:04;99285.06;;;33.83;52.52
7333;BME280;3707;43.618;25.342;2022-08-21T12:13:34;99280.22;;;33.20;53.04
7333;BME280;3707;43.618;25.342;2022-08-21T12:16:06;99240.91;;;33.76;52.04
7333;BME280;3707;43.618;25.342;2022-08-21T12:18:34;99244.56;;;33.18;52.48
7333;BME280;3707;43.618;25.342;2022-08-21T12:21:16;99258.19;;;33.35;53.22
7333;BME280;3707;43.618;25.342;2022-08-21T12:23:47;99230.47;;;33.35;52.92
7333;BME280;3707;43.618;25.342;2022-08-21T12:26:26;99254.41;;;34.04;52.55
7333;BME280;3707;43.618;25.342;2022-08-21T12:29:14;99257.19;;;33.27;53.81
7333;BME280;3707;43.618;25.342;2022-08-21T12:31:54;99233.91;;;32.87;54.15
7333;BME280;3707;43.618;25.342;2022-08-21T12:34:23;99241.84;;;33.08;54.39
7333;BME280;3707;43.618;25.342;2022-08-21T12:36:54;99244.56;;;33.75;52.75
7333;BME280;3707;43.618;25.342;2022-08-21T12:39:25;99230.22;;;34.04;52.20
7333;BME280;3707;43.618;25.342;2022-08-21T12:41:57;99242.78;;;34.22;50.83
7333;BME280;3707;43.618;25.342;2022-08-21T12:44:32;99233.63;;;34.06;51.47
7333;BME280;3707;43.618;25.342;2022-08-21T12:47:04;99222.50;;;33.33;53.36
7333;BME280;3707;43.618;25.342;2022-08-21T12:49:35;99232.19;;;32.86;55.05
7333;BME280;3707;43.618;25.342;2022-08-21T12:52:08;99225.22;;;33.53;54.40
7333;BME280;3707;43.618;25.342;2022-08-21T12:54:40;99232.44;;;33.14;54.54
7333;BME280;3707;43.618;25.342;2022-08-21T12:57:17;99168.31;;;32.31;55.93
7333;BME280;3707;43.618;25.342;2022-08-21T12:59:45;99226.25;;;32.43;58.60
7333;BME280;3707;43.618;25.342;2022-08-21T13:02:16;99226.94;;;32.75;58.47
7333;BME280;3707;43.618;25.342;2022-08-21T13:04:44;99222.19;;;33.08;57.22
7333;BME280;3707;43.618;25.342;2022-08-21T13:07:16;99220.63;;;33.05;57.71
7333;BME280;3707;43.618;25.342;2022-08-21T13:09:46;99221.75;;;32.83;57.96
7333;BME280;3707;43.618;25.342;2022-08-21T13:12:17;99156.78;;;32.50;56.72
7333;BME280;3707;43.618;25.342;2022-08-21T13:14:48;99213.44;;;32.96;56.31
7333;BME280;3707;43.618;25.342;2022-08-21T13:17:18;99234.41;;;33.31;55.27
7333;BME280;3707;43.618;25.342;2022-08-21T13:19:56;99193.94;;;33.42;55.35
7333;BME280;3707;43.618;25.342;2022-08-21T13:22:23;99229.84;;;33.03;55.84